createdAt,value
2023-02-04T00:00:26.877Z,77.20
2023-02-04T00:02:54.260Z,77.30
2023-02-04T00:05:22.036Z,77.30
2023-02-04T00:07:49.388Z,77.40
2023-02-04T00:10:16.755Z,77.20
2023-02-04T00:12:44.053Z,77.00
2023-02-04T00:15:11.423Z,77.10
2023-02-04T00:17:39.577Z,76.70
2023-02-04T00:20:07.439Z,76.50
2023-02-04T00:22:34.782Z,75.40
2023-02-04T00:25:02.020Z,75.00
2023-02-04T00:27:29.363Z,74.90
2023-02-04T00:29:57.704Z,73.20
2023-02-04T00:32:25.784Z,73.60
2023-02-04T00:34:53.914Z,72.50
2023-02-04T00:37:21.989Z,72.90
2023-02-04T00:39:49.516Z,72.30
2023-02-04T00:42:17.591Z,72.30
2023-02-04T00:44:44.980Z,72.50
2023-02-04T00:47:12.562Z,72.20
2023-02-04T00:49:39.877Z,72.30
2023-02-04T00:52:07.373Z,72.40
2023-02-04T00:54:34.667Z,73.20
2023-02-04T00:57:01.889Z,73.60
2023-02-04T00:59:29.148Z,74.30
2023-02-04T01:01:56.402Z,74.60
2023-02-04T01:04:24.540Z,74.90
2023-02-04T01:06:52.002Z,74.90
2023-02-04T01:09:19.305Z,74.90
2023-02-04T01:11:46.852Z,74.90
2023-02-04T01:14:14.366Z,75.30
2023-02-04T01:16:41.703Z,75.80
2023-02-04T01:19:09.518Z,75.40
2023-02-04T01:21:37.389Z,75.20
2023-02-04T01:24:05.096Z,75.40
2023-02-04T01:26:32.360Z,75.20
2023-02-04T01:28:59.661Z,75.20
2023-02-04T01:31:27.087Z,74.90
2023-02-04T01:33:54.377Z,75.00
2023-02-04T01:36:21.921Z,74.40
2023-02-04T01:38:50.291Z,74.00
2023-02-04T01:41:19.186Z,73.80
2023-02-04T01:43:49.991Z,73.50
2023-02-04T01:46:17.708Z,72.60
2023-02-04T01:48:45.592Z,73.20
2023-02-04T01:51:17.324Z,72.80
2023-02-04T01:53:44.804Z,72.80
2023-02-04T01:56:28.087Z,72.80
2023-02-04T01:58:58.289Z,72.70
2023-02-04T02:01:44.520Z,72.30
2023-02-04T02:04:20.291Z,72.80
2023-02-04T02:06:57.294Z,72.70
2023-02-04T02:09:26.924Z,73.10
2023-02-04T02:11:54.484Z,72.70
2023-02-04T02:14:22.625Z,72.60
2023-02-04T02:16:50.040Z,72.70
2023-02-04T02:19:28.459Z,72.60
2023-02-04T02:22:11.172Z,72.20
2023-02-04T02:24:38.460Z,71.70
2023-02-04T02:27:10.074Z,71.50
2023-02-04T02:29:42.378Z,71.60
2023-02-04T02:32:13.294Z,71.40
2023-02-04T02:34:42.944Z,71.50
2023-02-04T02:37:10.749Z,71.30
2023-02-04T02:39:40.989Z,71.30
2023-02-04T02:42:10.325Z,71.00
2023-02-04T02:44:37.985Z,70.70
2023-02-04T02:47:05.486Z,71.00
2023-02-04T02:49:35.012Z,70.90
2023-02-04T02:52:02.348Z,70.80
2023-02-04T02:54:32.108Z,70.00
2023-02-04T02:57:00.241Z,69.90
2023-02-04T02:59:27.959Z,70.30
2023-02-04T03:02:03.614Z,70.50
2023-02-04T03:04:36.077Z,70.60
2023-02-04T03:07:04.012Z,70.50
2023-02-04T03:09:31.702Z,70.50
2023-02-04T03:11:59.006Z,70.40
2023-02-04T03:14:27.458Z,70.60
2023-02-04T03:16:55.918Z,70.70
2023-02-04T03:19:26.537Z,70.60
2023-02-04T03:21:56.801Z,69.80
2023-02-04T03:24:24.932Z,70.10
2023-02-04T03:26:52.682Z,70.00
2023-02-04T03:29:19.978Z,69.90
2023-02-04T03:31:47.512Z,70.00
2023-02-04T03:34:14.870Z,70.00
2023-02-04T03:36:42.320Z,70.00
2023-02-04T03:39:09.545Z,69.50
2023-02-04T03:41:36.871Z,70.20
2023-02-04T03:44:04.419Z,69.60
2023-02-04T03:46:31.742Z,69.10
2023-02-04T03:48:59.029Z,69.20
2023-02-04T03:51:26.407Z,69.30
2023-02-04T03:53:53.749Z,69.60
2023-02-04T03:56:21.086Z,70.10
2023-02-04T03:58:48.325Z,70.60
2023-02-04T04:01:15.664Z,70.90
2023-02-04T04:03:43.029Z,71.00
2023-02-04T04:06:11.276Z,71.50
2023-02-04T04:08:39.307Z,71.20
2023-02-04T04:11:06.515Z,72.40
2023-02-04T04:13:33.766Z,72.60
2023-02-04T04:16:01.137Z,74.40
2023-02-04T04:18:28.389Z,74.00
2023-02-04T04:20:55.657Z,75.80
2023-02-04T04:23:22.909Z,76.50
2023-02-04T04:25:50.286Z,77.00
2023-02-04T04:28:18.519Z,76.90
2023-02-04T04:30:45.912Z,77.10
2023-02-04T04:33:13.246Z,76.40
2023-02-04T04:35:40.564Z,75.90
2023-02-04T04:38:07.878Z,73.10
2023-02-04T04:40:35.137Z,73.80
2023-02-04T04:43:03.112Z,72.70
2023-02-04T04:45:30.500Z,71.70
2023-02-04T04:47:57.849Z,70.90
2023-02-04T04:50:25.114Z,69.90
2023-02-04T04:52:52.372Z,69.40
2023-02-04T04:55:19.587Z,68.40
2023-02-04T04:57:46.837Z,66.60
2023-02-04T05:00:20.543Z,67.40
2023-02-04T05:02:48.045Z,67.30
2023-02-04T05:05:15.596Z,66.90
2023-02-04T05:07:42.939Z,65.30
2023-02-04T05:10:10.726Z,64.90
2023-02-04T05:12:38.449Z,65.20
2023-02-04T05:15:06.546Z,64.70
2023-02-04T05:17:34.140Z,64.20
2023-02-04T05:20:01.670Z,64.40
2023-02-04T05:22:28.944Z,64.40
2023-02-04T05:24:56.268Z,64.10
2023-02-04T05:27:23.626Z,64.70
2023-02-04T05:29:50.880Z,64.60
2023-02-04T05:32:18.216Z,64.10
2023-02-04T05:34:45.558Z,64.60
2023-02-04T05:37:15.401Z,64.50
2023-02-04T05:39:43.460Z,64.50
2023-02-04T05:42:10.761Z,64.90
2023-02-04T05:44:38.121Z,65.00
2023-02-04T05:47:05.478Z,65.00
2023-02-04T05:49:32.819Z,65.10
2023-02-04T05:52:00.097Z,65.00
2023-02-04T05:54:27.383Z,64.90
2023-02-04T05:56:54.704Z,65.20
2023-02-04T05:59:21.986Z,65.30
2023-02-04T06:01:49.288Z,65.50
2023-02-04T06:04:17.058Z,65.80
2023-02-04T06:06:44.529Z,66.00
2023-02-04T06:09:12.341Z,66.40
2023-02-04T06:11:39.954Z,67.00
2023-02-04T06:14:07.403Z,66.60
2023-02-04T06:16:34.912Z,66.50
2023-02-04T06:19:02.360Z,66.90
2023-02-04T06:21:29.682Z,66.30
2023-02-04T06:23:56.919Z,66.20
2023-02-04T06:26:24.213Z,66.20
2023-02-04T06:28:51.431Z,65.00
2023-02-04T06:31:18.983Z,65.20
2023-02-04T06:33:46.443Z,62.10
2023-02-04T06:36:13.788Z,62.10
2023-02-04T06:38:41.121Z,61.30
2023-02-04T06:41:08.376Z,61.60
2023-02-04T06:43:35.715Z,61.40
2023-02-04T06:46:03.117Z,61.30
2023-02-04T06:48:31.260Z,61.20
2023-02-04T06:50:58.686Z,61.00
2023-02-04T06:53:26.537Z,61.50
2023-02-04T06:55:53.816Z,61.20
2023-02-04T06:58:22.987Z,61.30
2023-02-04T07:00:53.704Z,61.10
2023-02-04T07:03:20.977Z,61.10
2023-02-04T07:05:48.641Z,61.20
2023-02-04T07:08:15.986Z,60.70
2023-02-04T07:10:43.330Z,60.90
2023-02-04T07:13:10.660Z,60.90
2023-02-04T07:15:38.078Z,61.10
2023-02-04T07:18:05.448Z,61.00
2023-02-04T07:20:33.137Z,61.20
2023-02-04T07:23:00.677Z,61.20
2023-02-04T07:25:27.944Z,61.20
2023-02-04T07:27:56.399Z,61.10
2023-02-04T07:30:23.643Z,61.00
2023-02-04T07:32:52.063Z,61.30
2023-02-04T07:35:19.196Z,61.40
2023-02-04T07:37:46.472Z,61.50
2023-02-04T07:40:13.951Z,61.20
2023-02-04T07:42:41.226Z,60.70
2023-02-04T07:45:09.388Z,60.80
2023-02-04T07:47:36.683Z,60.50
2023-02-04T07:50:04.585Z,60.40
2023-02-04T07:52:31.903Z,60.50
2023-02-04T07:54:59.728Z,60.30
2023-02-04T07:57:27.117Z,60.50
2023-02-04T07:59:54.442Z,60.60
2023-02-04T08:02:23.833Z,61.10
2023-02-04T08:05:01.432Z,61.40
2023-02-04T08:07:28.961Z,60.60
2023-02-04T08:10:16.160Z,60.60
2023-02-04T08:12:43.545Z,60.60
2023-02-04T08:15:15.318Z,60.30
2023-02-04T08:18:06.701Z,60.50
2023-02-04T08:21:01.353Z,61.00
2023-02-04T08:23:28.730Z,60.70
2023-02-04T08:25:56.177Z,60.10
2023-02-04T08:28:23.556Z,60.10
2023-02-04T08:30:50.891Z,60.00
2023-02-04T08:33:22.582Z,60.30
2023-02-04T08:35:50.487Z,60.50
2023-02-04T08:38:17.793Z,60.70
2023-02-04T08:40:45.355Z,60.70
2023-02-04T08:43:12.657Z,60.30
2023-02-04T08:45:41.573Z,60.30
2023-02-04T08:48:09.582Z,59.80
2023-02-04T08:50:39.480Z,59.80
2023-02-04T08:53:06.770Z,59.20
2023-02-04T08:55:34.124Z,59.30
2023-02-04T08:58:03.056Z,59.60
2023-02-04T09:00:31.419Z,59.70
2023-02-04T09:02:59.117Z,59.90
2023-02-04T09:05:26.448Z,59.60
2023-02-04T09:07:53.774Z,59.50
2023-02-04T09:10:21.025Z,59.10
2023-02-04T09:12:48.325Z,59.50
2023-02-04T09:15:15.652Z,59.50
2023-02-04T09:17:44.174Z,60.10
2023-02-04T09:20:11.986Z,60.30
2023-02-04T09:22:39.302Z,60.50
2023-02-04T09:25:07.233Z,60.90
2023-02-04T09:27:34.535Z,60.40
2023-02-04T09:30:01.882Z,59.90
2023-02-04T09:32:29.189Z,59.80
2023-02-04T09:34:56.511Z,59.90
2023-02-04T09:37:24.963Z,59.80
2023-02-04T09:39:52.475Z,59.70
2023-02-04T09:42:24.983Z,60.30
2023-02-04T09:44:52.513Z,59.70
2023-02-04T09:47:25.483Z,59.60
2023-02-04T09:49:53.103Z,59.60
2023-02-04T09:52:21.470Z,59.80
2023-02-04T09:54:48.652Z,60.20
2023-02-04T09:57:20.162Z,59.60
2023-02-04T09:59:47.731Z,59.80
2023-02-04T10:02:26.337Z,59.70
2023-02-04T10:04:58.176Z,59.60
2023-02-04T10:07:27.494Z,58.50
2023-02-04T10:09:55.566Z,58.50
2023-02-04T10:12:23.128Z,58.40
2023-02-04T10:14:50.469Z,57.60
2023-02-04T10:17:22.629Z,57.80
2023-02-04T10:19:50.449Z,57.70
2023-02-04T10:22:21.657Z,57.50
2023-02-04T10:24:49.041Z,57.70
2023-02-04T10:27:16.536Z,57.20
2023-02-04T10:29:59.657Z,56.40
2023-02-04T10:32:31.268Z,56.10
2023-02-04T10:35:02.133Z,55.60
2023-02-04T10:37:32.288Z,55.40
2023-02-04T10:39:59.749Z,55.10
2023-02-04T10:42:31.518Z,54.60
2023-02-04T10:44:59.230Z,54.70
2023-02-04T10:47:31.321Z,54.80
2023-02-04T10:50:11.514Z,55.10
2023-02-04T10:52:43.466Z,54.30
2023-02-04T10:55:24.292Z,54.40
2023-02-04T10:57:54.877Z,54.10
2023-02-04T11:00:25.436Z,54.60
2023-02-04T11:03:31.262Z,54.30
2023-02-04T11:06:01.165Z,53.90
2023-02-04T11:08:38.532Z,52.40
2023-02-04T11:11:25.896Z,52.80
2023-02-04T11:13:54.676Z,52.70
2023-02-04T11:16:33.064Z,53.30
2023-02-04T11:19:10.552Z,53.60
2023-02-04T11:21:44.331Z,53.30
2023-02-04T11:24:43.965Z,52.80
2023-02-04T11:27:42.443Z,52.40
2023-02-04T11:30:23.980Z,52.80
2023-02-04T11:33:05.590Z,51.20
2023-02-04T11:35:36.274Z,49.40
2023-02-04T11:38:34.429Z,50.10
2023-02-04T11:41:23.109Z,50.90
2023-02-04T11:43:58.125Z,51.50
2023-02-04T11:46:33.997Z,52.60
2023-02-04T11:49:29.618Z,52.80
2023-02-04T11:52:17.624Z,52.60
2023-02-04T11:55:00.571Z,52.60
2023-02-04T11:57:28.702Z,52.40
2023-02-04T11:59:56.088Z,52.50
2023-02-04T12:02:28.094Z,52.50
2023-02-04T12:05:18.157Z,51.30
2023-02-04T12:07:47.710Z,51.60
2023-02-04T12:10:26.747Z,52.20
2023-02-04T12:12:59.709Z,53.10
2023-02-04T12:15:36.695Z,53.40
2023-02-04T12:18:09.961Z,53.30
2023-02-04T12:20:37.521Z,53.40
2023-02-04T12:23:06.091Z,52.50
2023-02-04T12:25:34.760Z,52.40
2023-02-04T12:28:02.493Z,51.30
2023-02-04T12:30:30.824Z,51.60
2023-02-04T12:32:58.203Z,50.80
2023-02-04T12:35:25.508Z,50.00
2023-02-04T12:37:52.798Z,50.00
2023-02-04T12:40:22.031Z,50.30
2023-02-04T12:42:50.175Z,50.70
2023-02-04T12:45:18.521Z,50.70
2023-02-04T12:47:46.398Z,50.00
2023-02-04T12:50:22.746Z,49.70
2023-02-04T12:52:55.967Z,49.40
2023-02-04T12:55:26.077Z,49.40
2023-02-04T12:57:54.150Z,49.80
2023-02-04T13:00:22.586Z,48.90
2023-02-04T13:02:50.261Z,48.60
2023-02-04T13:05:18.581Z,48.60
2023-02-04T13:07:45.738Z,48.80
2023-02-04T13:10:14.584Z,49.00
2023-02-04T13:12:42.065Z,49.10
2023-02-04T13:15:10.383Z,49.30
2023-02-04T13:17:37.577Z,49.00
2023-02-04T13:20:06.204Z,49.00
2023-02-04T13:22:33.603Z,49.10
2023-02-04T13:25:03.120Z,49.30
2023-02-04T13:27:31.984Z,48.60
2023-02-04T13:29:59.304Z,47.90
2023-02-04T13:32:26.803Z,48.50
2023-02-04T13:34:54.169Z,48.50
2023-02-04T13:37:21.478Z,49.10
2023-02-04T13:39:48.771Z,48.00
2023-02-04T13:42:16.224Z,48.20
2023-02-04T13:44:43.630Z,48.10
2023-02-04T13:47:11.268Z,47.90
2023-02-04T13:49:38.602Z,47.80
2023-02-04T13:52:05.880Z,47.60
2023-02-04T13:54:33.864Z,48.60
2023-02-04T13:57:12.056Z,47.50
2023-02-04T13:59:40.698Z,47.20
2023-02-04T14:02:15.573Z,47.20
2023-02-04T14:04:48.846Z,46.90
2023-02-04T14:07:25.230Z,46.70
2023-02-04T14:09:56.592Z,47.20
2023-02-04T14:12:33.925Z,46.70
2023-02-04T14:15:11.418Z,46.50
2023-02-04T14:17:52.558Z,46.90
2023-02-04T14:20:20.170Z,47.10
2023-02-04T14:22:47.428Z,47.50
2023-02-04T14:25:14.838Z,47.80
2023-02-04T14:27:42.724Z,48.00
2023-02-04T14:30:24.001Z,47.70
2023-02-04T14:32:51.491Z,48.40
2023-02-04T14:35:19.664Z,48.40
2023-02-04T14:37:47.516Z,48.10
2023-02-04T14:40:16.239Z,48.30
2023-02-04T14:42:43.893Z,48.40
2023-02-04T14:45:14.383Z,48.50
2023-02-04T14:47:42.107Z,48.20
2023-02-04T14:50:15.755Z,48.50
2023-02-04T14:52:43.249Z,48.10
2023-02-04T14:55:12.963Z,48.20
2023-02-04T14:57:40.352Z,48.40
2023-02-04T15:00:08.634Z,46.90
2023-02-04T15:02:36.054Z,47.00
2023-02-04T15:05:04.054Z,47.50
2023-02-04T15:07:31.542Z,47.60
2023-02-04T15:09:58.874Z,48.20
2023-02-04T15:12:26.420Z,48.70
2023-02-04T15:14:53.747Z,49.40
2023-02-04T15:17:21.235Z,49.60
2023-02-04T15:19:48.740Z,49.80
2023-02-04T15:22:16.327Z,50.20
2023-02-04T15:24:43.615Z,50.10
2023-02-04T15:27:11.089Z,50.60
2023-02-04T15:29:38.388Z,50.60
2023-02-04T15:32:06.567Z,51.00
2023-02-04T15:34:34.503Z,51.90
2023-02-04T15:37:01.763Z,52.80
2023-02-04T15:39:29.069Z,53.00
2023-02-04T15:41:57.159Z,53.40
2023-02-04T15:44:26.742Z,53.80
2023-02-04T15:46:54.685Z,53.30
2023-02-04T15:49:22.325Z,53.30
2023-02-04T15:51:49.615Z,53.70
2023-02-04T15:54:16.951Z,53.80
2023-02-04T15:56:44.583Z,53.70
2023-02-04T15:59:12.088Z,53.90
2023-02-04T16:01:39.493Z,54.20
2023-02-04T16:04:06.792Z,54.60
2023-02-04T16:06:34.102Z,54.70
2023-02-04T16:09:01.794Z,55.00
2023-02-04T16:11:29.496Z,55.00
2023-02-04T16:13:58.798Z,55.10
2023-02-04T16:16:26.445Z,55.30
2023-02-04T16:18:56.985Z,55.20
2023-02-04T16:21:30.292Z,55.40
2023-02-04T16:27:19.142Z,55.40
2023-02-04T16:29:56.957Z,55.80
2023-02-04T16:32:33.994Z,56.30
2023-02-04T16:35:04.512Z,61.10
2023-02-04T16:37:38.206Z,60.60
2023-02-04T16:40:14.467Z,61.80
2023-02-04T16:43:04.865Z,61.10
2023-02-04T16:45:34.821Z,62.30
2023-02-04T16:48:02.241Z,62.80
2023-02-04T16:50:29.602Z,63.60
2023-02-04T16:52:56.887Z,63.50
2023-02-04T16:55:25.734Z,63.70
2023-02-04T16:57:53.210Z,64.20
2023-02-04T17:00:21.005Z,64.40
2023-02-04T17:02:48.459Z,64.10
2023-02-04T17:05:23.008Z,64.70
2023-02-04T17:07:50.445Z,64.40
2023-02-04T17:10:37.869Z,64.20
2023-02-04T17:13:05.181Z,64.20
2023-02-04T17:15:32.722Z,64.40
2023-02-04T17:18:00.120Z,65.20
2023-02-04T17:20:27.632Z,64.90
2023-02-04T17:22:56.642Z,64.80
2023-02-04T17:25:24.034Z,64.30
2023-02-04T17:27:52.760Z,64.30
2023-02-04T17:30:23.743Z,64.30
2023-02-04T17:32:51.167Z,64.40
2023-02-04T17:35:18.556Z,63.90
2023-02-04T17:37:45.865Z,63.60
2023-02-04T17:40:13.198Z,62.80
2023-02-04T17:42:41.568Z,62.70
2023-02-04T17:45:11.299Z,62.60
2023-02-04T17:47:39.761Z,61.60
2023-02-04T17:50:10.452Z,61.10
2023-02-04T17:52:38.625Z,61.00
2023-02-04T17:55:30.996Z,60.70
2023-02-04T17:58:07.185Z,60.80
2023-02-04T18:00:35.007Z,60.50
2023-02-04T18:03:02.622Z,60.50
2023-02-04T18:05:30.896Z,60.20
2023-02-04T18:08:20.199Z,60.10
2023-02-04T18:10:50.489Z,59.60
2023-02-04T18:13:41.412Z,59.70
2023-02-04T18:16:30.470Z,60.10
2023-02-04T18:19:28.050Z,60.50
2023-02-04T18:21:58.024Z,61.10
2023-02-04T18:24:36.430Z,61.00
2023-02-04T18:27:21.929Z,61.70
2023-02-04T18:29:59.177Z,61.60
2023-02-04T18:32:37.811Z,62.00
2023-02-04T18:35:38.079Z,61.80
2023-02-04T18:38:25.740Z,61.80
2023-02-04T18:41:27.994Z,62.10
2023-02-04T18:44:35.004Z,62.00
2023-02-04T18:47:29.491Z,62.10
2023-02-04T18:49:57.203Z,62.40
2023-02-04T18:52:24.609Z,62.30
2023-02-04T18:54:59.121Z,62.30
2023-02-04T18:57:46.698Z,62.30
2023-02-04T19:00:23.513Z,62.40
2023-02-04T19:03:04.564Z,62.50
2023-02-04T19:05:47.439Z,62.40
2023-02-04T19:08:24.304Z,62.30
2023-02-04T19:10:54.959Z,62.30
2023-02-04T19:13:41.250Z,62.20
2023-02-04T19:16:29.370Z,62.30
2023-02-04T19:18:57.593Z,62.30
2023-02-04T19:21:28.949Z,62.30
2023-02-04T19:24:17.792Z,62.20
2023-02-04T19:26:55.687Z,62.30
2023-02-04T19:29:23.517Z,62.30
2023-02-04T19:31:59.198Z,62.30
2023-02-04T19:34:33.993Z,62.20
2023-02-04T19:37:01.359Z,62.20
2023-02-04T19:39:40.544Z,62.10
2023-02-04T19:42:35.431Z,62.10
2023-02-04T19:45:25.765Z,62.30
2023-02-04T19:47:55.715Z,62.40
2023-02-04T19:50:30.338Z,62.30
2023-02-04T19:53:20.284Z,62.60
2023-02-04T19:55:53.145Z,62.40
2023-02-04T19:58:23.481Z,62.80
2023-02-04T20:01:14.812Z,62.90
2023-02-04T20:03:48.005Z,63.30
2023-02-04T20:06:36.425Z,63.60
2023-02-04T20:09:20.376Z,63.50
2023-02-04T20:12:05.936Z,63.70
2023-02-04T20:14:42.050Z,64.00
2023-02-04T20:17:20.152Z,64.20
2023-02-04T20:19:48.240Z,64.10
2023-02-04T20:22:18.565Z,65.20
2023-02-04T20:24:53.215Z,66.40
2023-02-04T20:27:38.082Z,64.90
2023-02-04T20:30:09.325Z,65.70
2023-02-04T20:32:53.813Z,65.50
2023-02-04T20:35:21.101Z,65.60
2023-02-04T20:37:55.980Z,65.60
2023-02-04T20:40:52.595Z,65.60
2023-02-04T20:43:24.222Z,66.40
2023-02-04T20:45:59.774Z,66.20
2023-02-04T20:48:34.939Z,66.00
2023-02-04T20:51:04.807Z,66.20
2023-02-04T20:53:50.276Z,66.00
2023-02-04T20:56:31.794Z,66.60
2023-02-04T20:59:30.172Z,66.10
2023-02-04T21:01:57.484Z,66.00
2023-02-04T21:04:38.578Z,66.70
2023-02-04T21:07:24.145Z,67.10
2023-02-04T21:09:51.772Z,67.40
2023-02-04T21:12:19.463Z,67.00
2023-02-04T21:14:46.864Z,67.20
2023-02-04T21:17:14.133Z,67.30
2023-02-04T21:19:41.356Z,67.20
2023-02-04T21:22:08.644Z,67.70
2023-02-04T21:24:35.984Z,67.50
2023-02-04T21:27:03.300Z,67.80
2023-02-04T21:29:30.685Z,67.90
2023-02-04T21:31:58.019Z,68.00
2023-02-04T21:34:25.436Z,69.30
2023-02-04T21:36:52.770Z,68.80
2023-02-04T21:39:20.898Z,69.30
2023-02-04T21:42:08.109Z,69.50
2023-02-04T21:44:36.887Z,69.60
2023-02-04T21:47:04.282Z,70.40
2023-02-04T21:49:31.724Z,70.50
2023-02-04T21:51:59.087Z,70.00
2023-02-04T21:54:26.365Z,69.90
2023-02-04T21:56:53.646Z,69.80
2023-02-04T21:59:20.984Z,69.70
2023-02-04T22:01:48.294Z,69.80
2023-02-04T22:04:15.613Z,70.40
2023-02-04T22:06:42.902Z,70.60
2023-02-04T22:09:10.183Z,70.50
2023-02-04T22:11:37.504Z,70.00
2023-02-04T22:14:04.722Z,70.00
2023-02-04T22:16:32.086Z,71.10
2023-02-04T22:18:59.673Z,70.80
2023-02-04T22:21:26.940Z,70.40
2023-02-04T22:23:54.211Z,70.90
2023-02-04T22:26:21.479Z,71.20
2023-02-04T22:28:48.761Z,72.00
2023-02-04T22:31:16.241Z,71.40
2023-02-04T22:33:43.579Z,71.10
2023-02-04T22:36:12.307Z,71.00
2023-02-04T22:38:39.566Z,71.00
2023-02-04T22:41:07.885Z,71.10
2023-02-04T22:43:35.164Z,70.90
2023-02-04T22:46:02.572Z,71.10
2023-02-04T22:48:29.935Z,72.00
2023-02-04T22:50:57.239Z,71.80
2023-02-04T22:53:24.664Z,71.60
2023-02-04T22:55:51.991Z,71.40
2023-02-04T22:58:19.385Z,71.30
2023-02-04T23:00:46.773Z,71.80
2023-02-04T23:03:14.079Z,71.70
2023-02-04T23:05:41.395Z,71.50
2023-02-04T23:08:10.093Z,71.60
2023-02-04T23:10:38.950Z,71.50
2023-02-04T23:13:06.881Z,71.30
2023-02-04T23:15:34.468Z,71.40
2023-02-04T23:18:02.054Z,71.30
2023-02-04T23:20:29.564Z,71.30
2023-02-04T23:22:57.070Z,71.20
2023-02-04T23:25:24.433Z,70.70
2023-02-04T23:27:52.015Z,70.80
2023-02-04T23:30:20.334Z,70.50
2023-02-04T23:32:47.660Z,70.00
2023-02-04T23:35:14.963Z,69.90
2023-02-04T23:37:42.242Z,69.80
2023-02-04T23:40:10.244Z,69.70
2023-02-04T23:42:37.552Z,69.20
2023-02-04T23:45:05.586Z,69.00
2023-02-04T23:47:32.921Z,69.00
2023-02-04T23:50:00.175Z,69.30
2023-02-04T23:52:27.590Z,69.40
2023-02-04T23:54:54.967Z,69.40
2023-02-04T23:57:22.709Z,69.60
2023-02-04T23:59:49.958Z,69.90
